Time;durP1;ratioP1;P1;durP2;ratioP2;P2;SDS_P1;SDS_P2;PMS_P1;PMS_P2;Temp;Humidity;BMP_temperature;BMP_pressure;BME280_temperature;BME280_humidity;BME280_pressure;Samples;Min_cycle;Max_cycle;Signal;HPM_P1;HPM_P2
2020/12/27 00:02:16;;;;;;;9.95;6.00;;;5.60;99.90;;;;;;5048433;28;20045;-66
2020/12/27 00:04:42;;;;;;;8.88;6.07;;;5.50;99.90;;;;;;5049356;28;20505;-66
2020/12/27 00:07:10;;;;;;;7.63;5.50;;;5.50;99.90;;;;;;5049150;28;20059;-66
2020/12/27 00:09:37;;;;;;;9.80;6.68;;;5.50;99.90;;;;;;5050457;28;20079;-66
2020/12/27 00:12:07;;;;;;;10.50;6.15;;;5.50;99.90;;;;;;5050425;28;20049;-66
2020/12/27 00:14:34;;;;;;;9.48;6.40;;;5.50;99.90;;;;;;5029411;28;20103;-66
2020/12/27 00:17:05;;;;;;;9.02;4.85;;;5.50;99.90;;;;;;5046979;28;20494;-66
2020/12/27 00:19:31;;;;;;;9.98;6.55;;;5.50;99.90;;;;;;5049775;28;20168;-66
2020/12/27 00:21:57;;;;;;;10.07;6.38;;;5.40;99.90;;;;;;5045127;28;20041;-66
2020/12/27 00:24:23;;;;;;;9.05;5.50;;;5.40;99.90;;;;;;5045433;28;20048;-66
2020/12/27 00:26:50;;;;;;;8.88;6.22;;;5.40;99.90;;;;;;5052489;28;20057;-66
2020/12/27 00:29:17;;;;;;;10.88;5.22;;;5.30;99.90;;;;;;5047493;28;20375;-66
2020/12/27 00:31:44;;;;;;;8.75;5.63;;;5.30;99.90;;;;;;5056272;28;20053;-66
2020/12/27 00:34:10;;;;;;;11.93;6.03;;;5.20;99.90;;;;;;5049670;28;20049;-66
2020/12/27 00:36:37;;;;;;;10.60;5.72;;;5.10;99.90;;;;;;5047888;28;20396;-65
2020/12/27 00:39:06;;;;;;;9.07;5.88;;;5.10;99.90;;;;;;5046726;28;20506;-66
2020/12/27 00:41:33;;;;;;;8.73;5.78;;;5.00;99.90;;;;;;5054319;28;20060;-66
2020/12/27 00:44:05;;;;;;;8.90;6.00;;;5.00;99.90;;;;;;5049004;28;20072;-66
2020/12/27 00:46:31;;;;;;;11.77;6.70;;;5.00;99.90;;;;;;5086439;28;20072;-66
2020/12/27 00:48:58;;;;;;;11.20;6.22;;;5.00;99.90;;;;;;5051107;28;20052;-66
2020/12/27 00:51:26;;;;;;;8.00;5.95;;;4.90;99.90;;;;;;5054384;28;20452;-66
2020/12/27 00:53:53;;;;;;;10.15;6.35;;;4.90;99.90;;;;;;5051068;28;20484;-66
2020/12/27 00:56:20;;;;;;;13.02;6.38;;;4.90;99.90;;;;;;5054786;28;20045;-66
2020/12/27 00:58:46;;;;;;;9.40;6.35;;;4.90;99.90;;;;;;5051316;28;20059;-66
2020/12/27 01:01:14;;;;;;;10.73;7.10;;;4.90;99.90;;;;;;5054168;28;20045;-66
2020/12/27 01:03:44;;;;;;;11.90;7.22;;;4.90;99.90;;;;;;5054480;28;20124;-66
2020/12/27 01:06:10;;;;;;;10.20;6.25;;;4.90;99.90;;;;;;5053962;28;20065;-66
2020/12/27 01:08:37;;;;;;;10.50;7.30;;;4.90;99.90;;;;;;5046363;28;20076;-66
2020/12/27 01:11:05;;;;;;;11.90;6.15;;;4.90;99.90;;;;;;5054551;28;20411;-66
2020/12/27 01:13:31;;;;;;;10.45;5.82;;;4.90;99.90;;;;;;5050160;28;20152;-66
2020/12/27 01:15:58;;;;;;;10.55;6.80;;;4.90;99.90;;;;;;5053301;28;20059;-66
2020/12/27 01:18:24;;;;;;;13.82;7.47;;;4.90;99.90;;;;;;5047755;28;20037;-66
2020/12/27 01:20:50;;;;;;;11.82;6.28;;;4.90;99.90;;;;;;5053797;28;20045;-66
2020/12/27 01:23:17;;;;;;;12.70;7.03;;;4.90;99.90;;;;;;5052912;28;20540;-66
2020/12/27 01:25:47;;;;;;;12.02;6.82;;;5.00;99.90;;;;;;5053841;28;20140;-66
2020/12/27 01:28:15;;;;;;;10.50;6.60;;;5.00;99.90;;;;;;5046803;28;20064;-66
2020/12/27 01:30:41;;;;;;;12.00;7.35;;;5.00;99.90;;;;;;5053554;28;20099;-66
2020/12/27 01:33:08;;;;;;;10.35;6.15;;;5.00;99.90;;;;;;5051589;28;20086;-66
2020/12/27 01:35:34;;;;;;;9.85;6.70;;;5.00;99.90;;;;;;5053534;28;20502;-66
2020/12/27 01:38:01;;;;;;;13.15;7.20;;;5.00;99.90;;;;;;5050561;28;20130;-66
2020/12/27 01:40:28;;;;;;;12.13;8.00;;;5.00;99.90;;;;;;5053338;28;20098;-66
2020/12/27 01:42:56;;;;;;;10.63;7.07;;;4.90;99.90;;;;;;5046735;28;20052;-67
2020/12/27 01:45:23;;;;;;;10.07;6.43;;;4.90;99.90;;;;;;5052796;28;20128;-66
2020/12/27 01:47:51;;;;;;;12.13;6.55;;;4.90;99.90;;;;;;5053009;28;20423;-66
2020/12/27 01:50:19;;;;;;;8.73;5.53;;;4.80;99.90;;;;;;5053466;28;20140;-66
2020/12/27 01:52:46;;;;;;;9.90;5.57;;;4.80;99.90;;;;;;5049630;28;20096;-66
2020/12/27 01:55:14;;;;;;;9.32;6.22;;;4.80;99.90;;;;;;5053001;28;20511;-66
2020/12/27 01:58:18;;;;;;;10.18;6.43;;;4.80;99.90;;;;;;5047679;28;20048;-66
2020/12/27 02:00:45;;;;;;;10.43;5.65;;;4.80;99.90;;;;;;5051389;28;20055;-66
2020/12/27 02:03:13;;;;;;;11.85;7.43;;;4.80;99.90;;;;;;5050641;28;20579;-66
2020/12/27 02:05:51;;;;;;;8.68;5.10;;;4.80;99.90;;;;;;5053145;28;20064;-66
2020/12/27 02:08:19;;;;;;;8.85;5.38;;;4.80;99.90;;;;;;5044677;28;20465;-66
2020/12/27 02:10:49;;;;;;;12.13;5.28;;;4.80;99.90;;;;;;5053112;28;20053;-66
2020/12/27 02:13:15;;;;;;;9.52;6.32;;;4.80;99.90;;;;;;5051173;28;20484;-66
2020/12/27 02:15:42;;;;;;;10.88;6.85;;;4.70;99.90;;;;;;5052888;28;20445;-66
2020/12/27 02:18:09;;;;;;;13.07;5.90;;;4.70;99.90;;;;;;5048757;28;20045;-66
2020/12/27 02:20:35;;;;;;;9.45;5.28;;;4.70;99.90;;;;;;5052634;28;20051;-66
2020/12/27 02:23:02;;;;;;;9.77;5.78;;;4.70;99.90;;;;;;5048174;28;20091;-66
2020/12/27 02:25:28;;;;;;;9.43;5.47;;;4.70;99.90;;;;;;5052431;28;20057;-66
2020/12/27 02:27:55;;;;;;;9.90;5.05;;;4.70;99.90;;;;;;5049278;28;20059;-66
2020/12/27 02:30:21;;;;;;;8.50;5.10;;;4.70;99.90;;;;;;5051974;28;20049;-66
2020/12/27 02:32:47;;;;;;;7.60;4.32;;;4.70;99.90;;;;;;5048674;28;20056;-66
2020/12/27 02:35:14;;;;;;;9.63;5.13;;;4.70;99.90;;;;;;5052212;28;20052;-66
2020/12/27 02:37:40;;;;;;;8.00;5.18;;;4.70;99.90;;;;;;5048295;28;20080;-66
2020/12/27 02:40:06;;;;;;;9.50;4.68;;;4.70;99.90;;;;;;5051749;28;20045;-66
2020/12/27 02:42:32;;;;;;;7.85;4.55;;;4.70;99.90;;;;;;5050350;28;20107;-66
2020/12/27 02:47:28;;;;;;;8.40;4.85;;;4.70;99.90;;;;;;5045678;28;20485;-66
2020/12/27 02:49:54;;;;;;;9.70;5.13;;;4.70;99.90;;;;;;5051878;28;20130;-65
2020/12/27 02:52:21;;;;;;;7.18;4.63;;;4.60;99.90;;;;;;5050123;28;20376;-66
2020/12/27 02:54:47;;;;;;;9.82;4.40;;;4.60;99.90;;;;;;5050910;28;20076;-66
2020/12/27 02:57:13;;;;;;;9.45;5.38;;;4.60;99.90;;;;;;5048724;28;20052;-66
2020/12/27 02:59:40;;;;;;;8.70;4.60;;;4.60;99.90;;;;;;5050583;28;20049;-66
2020/12/27 03:02:06;;;;;;;7.47;4.15;;;4.60;99.90;;;;;;5050032;28;20048;-66
2020/12/27 03:04:32;;;;;;;6.15;3.83;;;4.60;99.90;;;;;;5051137;28;20159;-66
2020/12/27 03:06:58;;;;;;;8.57;4.82;;;4.60;99.90;;;;;;5050012;28;20048;-66
2020/12/27 03:09:24;;;;;;;10.38;4.63;;;4.60;99.90;;;;;;5048883;28;20442;-66
2020/12/27 03:11:51;;;;;;;8.85;4.45;;;4.60;99.90;;;;;;5051355;28;20055;-66
2020/12/27 03:14:17;;;;;;;9.10;4.38;;;4.60;99.90;;;;;;5050013;28;20219;-66
2020/12/27 03:16:43;;;;;;;7.65;4.30;;;4.60;99.90;;;;;;5050818;28;20056;-66
2020/12/27 03:19:09;;;;;;;8.65;4.03;;;4.60;99.90;;;;;;5048605;28;20123;-66
2020/12/27 03:21:35;;;;;;;7.97;4.05;;;4.50;99.90;;;;;;5045444;28;20063;-66
2020/12/27 03:24:02;;;;;;;6.13;3.92;;;4.50;99.90;;;;;;5045522;28;20099;-66
2020/12/27 03:26:28;;;;;;;7.10;4.30;;;4.50;99.90;;;;;;5050225;28;20053;-66
2020/12/27 03:28:54;;;;;;;9.23;4.65;;;4.50;99.90;;;;;;5047322;28;20159;-66
2020/12/27 03:31:20;;;;;;;6.45;3.95;;;4.50;99.90;;;;;;5051192;28;20055;-66
2020/12/27 03:33:46;;;;;;;10.27;4.55;;;4.50;99.90;;;;;;5048592;28;20496;-66
2020/12/27 03:36:13;;;;;;;6.05;3.67;;;4.50;99.90;;;;;;5051261;28;20060;-66
2020/12/27 03:38:39;;;;;;;5.53;3.20;;;4.40;99.90;;;;;;5044712;28;20048;-66
2020/12/27 03:41:05;;;;;;;6.20;3.72;;;4.40;99.90;;;;;;5050366;28;20055;-66
2020/12/27 03:43:32;;;;;;;5.90;3.63;;;4.40;99.90;;;;;;5045219;28;20041;-66
2020/12/27 03:45:58;;;;;;;6.72;3.80;;;4.40;99.90;;;;;;5051447;28;20041;-66
2020/12/27 03:48:24;;;;;;;6.03;3.80;;;4.40;99.90;;;;;;5048096;28;20063;-66
2020/12/27 03:50:50;;;;;;;5.57;3.65;;;4.40;99.90;;;;;;5050990;28;20059;-66
2020/12/27 03:53:17;;;;;;;5.63;3.50;;;4.40;99.90;;;;;;5048358;28;20055;-66
2020/12/27 03:55:43;;;;;;;6.30;3.50;;;4.40;99.90;;;;;;5051265;28;20147;-66
2020/12/27 03:58:09;;;;;;;5.30;3.55;;;4.40;99.90;;;;;;5038832;28;20053;-66
2020/12/27 04:00:36;;;;;;;6.20;3.42;;;4.40;99.90;;;;;;5050032;28;20400;-66
2020/12/27 04:03:02;;;;;;;5.95;3.28;;;4.40;99.90;;;;;;5048973;28;20045;-66
2020/12/27 04:05:30;;;;;;;5.03;3.22;;;4.40;99.90;;;;;;5051121;28;20412;-66
2020/12/27 04:07:56;;;;;;;8.25;3.60;;;4.40;99.90;;;;;;5044362;28;20050;-66
2020/12/27 04:10:22;;;;;;;6.90;3.53;;;4.40;99.90;;;;;;5050214;28;20074;-66
2020/12/27 04:12:48;;;;;;;6.20;3.58;;;4.40;99.90;;;;;;5047823;28;20053;-66
2020/12/27 04:15:15;;;;;;;5.53;3.17;;;4.40;99.90;;;;;;5052913;28;20049;-66
2020/12/27 04:17:42;;;;;;;5.78;3.15;;;4.40;99.90;;;;;;5043295;28;20042;-66
2020/12/27 04:20:09;;;;;;;4.93;3.03;;;4.40;99.90;;;;;;5054950;28;20047;-66
2020/12/27 04:22:35;;;;;;;5.65;3.30;;;4.40;99.90;;;;;;5046536;28;20052;-66
2020/12/27 04:25:02;;;;;;;5.32;3.20;;;4.40;99.90;;;;;;5050486;28;20037;-66
2020/12/27 04:27:28;;;;;;;4.32;2.88;;;4.40;99.90;;;;;;5049094;28;20045;-66
2020/12/27 04:29:54;;;;;;;5.30;2.72;;;4.40;99.90;;;;;;5050140;28;20045;-66
2020/12/27 04:32:24;;;;;;;5.20;4.03;;;4.40;99.90;;;;;;5048305;28;20404;-66
2020/12/27 04:34:50;;;;;;;;;;;4.40;99.90;;;;;;5050031;28;20053;-66
2020/12/27 04:37:24;;;;;;;4.72;2.80;;;4.50;99.90;;;;;;5041526;28;19936;-66
2020/12/27 04:39:51;;;;;;;4.55;2.83;;;4.50;99.90;;;;;;5048576;28;20494;-66
2020/12/27 04:42:17;;;;;;;4.97;2.60;;;4.50;99.90;;;;;;5048384;28;20056;-66
2020/12/27 04:44:44;;;;;;;4.93;3.10;;;4.50;99.90;;;;;;5049731;28;20150;-66
2020/12/27 04:47:12;;;;;;;4.97;2.80;;;4.50;99.90;;;;;;5045699;28;20055;-67
2020/12/27 04:49:39;;;;;;;5.78;3.40;;;4.60;99.90;;;;;;5052931;28;20053;-66
2020/12/27 04:52:06;;;;;;;3.78;1.98;;;4.60;99.90;;;;;;5050376;28;20462;-67
2020/12/27 04:54:33;;;;;;;3.33;2.40;;;4.60;99.90;;;;;;5051024;28;20131;-67
2020/12/27 04:57:00;;;;;;;4.70;2.42;;;4.60;99.90;;;;;;5048720;28;20051;-67
2020/12/27 04:59:26;;;;;;;6.45;2.60;;;4.60;99.90;;;;;;5046896;28;20041;-67
2020/12/27 05:01:54;;;;;;;3.50;2.45;;;4.70;99.90;;;;;;5049228;28;20049;-67
2020/12/27 05:04:26;;;;;;;3.70;2.53;;;4.60;99.90;;;;;;5046213;28;20052;-67
2020/12/27 05:06:54;;;;;;;4.03;2.15;;;4.70;99.90;;;;;;5050532;28;20103;-67
2020/12/27 05:09:39;;;;;;;3.28;2.40;;;4.70;99.90;;;;;;5030797;28;20150;-67
2020/12/27 05:12:05;;;;;;;4.47;2.58;;;4.70;99.90;;;;;;5047040;28;20045;-67
2020/12/27 05:14:31;;;;;;;3.63;2.10;;;4.70;99.90;;;;;;5079652;28;20045;-68
2020/12/27 05:16:58;;;;;;;3.90;2.30;;;4.70;99.90;;;;;;5053322;28;20503;-68
2020/12/27 05:19:26;;;;;;;3.40;2.17;;;4.70;99.90;;;;;;5051303;28;20143;-68
2020/12/27 05:22:07;;;;;;;3.38;2.47;;;4.70;99.90;;;;;;5052690;28;20048;-67
2020/12/27 05:24:34;;;;;;;1.75;1.30;;;4.70;99.90;;;;;;5048437;28;20051;-68
2020/12/27 05:27:00;;;;;;;3.63;1.88;;;4.70;99.90;;;;;;5052511;28;20055;-68
2020/12/27 05:29:32;;;;;;;3.47;2.00;;;4.80;99.90;;;;;;5051933;28;20068;-68
2020/12/27 05:32:01;;;;;;;3.88;1.83;;;4.80;99.90;;;;;;5052985;28;20049;-67
2020/12/27 05:34:29;;;;;;;3.30;2.28;;;4.80;99.90;;;;;;5055869;28;20063;-67
2020/12/27 05:36:56;;;;;;;1.95;1.45;;;4.80;99.90;;;;;;5053809;28;20045;-67
2020/12/27 05:39:23;;;;;;;2.47;1.50;;;4.80;99.90;;;;;;5047178;28;20041;-67
2020/12/27 05:41:50;;;;;;;3.10;1.63;;;4.80;99.90;;;;;;5052352;28;20053;-66
2020/12/27 05:44:19;;;;;;;2.47;1.95;;;4.80;99.90;;;;;;5046623;28;20041;-67
2020/12/27 05:46:46;;;;;;;2.22;1.45;;;4.70;99.90;;;;;;5051739;28;20076;-67
2020/12/27 05:49:13;;;;;;;2.25;1.30;;;4.70;99.90;;;;;;5045194;28;20041;-67
2020/12/27 05:51:51;;;;;;;1.38;1.00;;;4.70;99.90;;;;;;5052165;28;20423;-67
2020/12/27 05:54:29;;;;;;;1.60;1.00;;;4.70;99.90;;;;;;5041818;28;20051;-67
2020/12/27 05:56:57;;;;;;;6.07;5.57;;;4.70;99.90;;;;;;5053098;28;20052;-67
2020/12/27 05:59:33;;;;;;;1.80;1.40;;;4.70;99.90;;;;;;5045825;28;20053;-67
2020/12/27 06:02:00;;;;;;;2.10;1.30;;;4.70;99.90;;;;;;5045995;28;20098;-67
2020/12/27 06:04:38;;;;;;;2.13;1.10;;;4.70;99.90;;;;;;5051584;28;20041;-67
2020/12/27 06:07:31;;;;;;;2.42;2.05;;;4.70;99.90;;;;;;5054128;28;20052;-67
2020/12/27 06:10:05;;;;;;;2.22;1.20;;;4.70;99.90;;;;;;5050151;28;20059;-67
2020/12/27 06:13:16;;;;;;;1.95;1.20;;;4.70;99.90;;;;;;5049542;28;20055;-67
2020/12/27 06:15:47;;;;;;;1.35;0.82;;;4.70;99.90;;;;;;5052783;28;20049;-67
2020/12/27 06:18:16;;;;;;;1.80;1.25;;;4.70;99.90;;;;;;5050830;28;20181;-67
2020/12/27 06:20:44;;;;;;;1.67;1.08;;;4.80;99.90;;;;;;5050030;28;20712;-67
2020/12/27 06:23:11;;;;;;;1.40;1.00;;;4.80;99.90;;;;;;5049003;28;20080;-67
2020/12/27 06:25:39;;;;;;;1.73;1.17;;;4.80;99.90;;;;;;5052251;28;20128;-67
2020/12/27 06:28:06;;;;;;;2.53;2.10;;;4.80;99.90;;;;;;5047425;28;20048;-67
2020/12/27 06:30:42;;;;;;;1.50;1.05;;;4.80;99.90;;;;;;5050984;28;20049;-67
2020/12/27 06:33:19;;;;;;;4.03;1.75;;;4.80;99.90;;;;;;5044604;28;20383;-67
2020/12/27 06:35:46;;;;;;;1.40;0.90;;;4.80;99.90;;;;;;5050900;28;20045;-67
2020/12/27 06:38:24;;;;;;;2.53;2.05;;;4.80;99.90;;;;;;5046827;28;20579;-67
2020/12/27 06:41:04;;;;;;;1.52;0.77;;;4.80;99.90;;;;;;5046100;28;20049;-67
2020/12/27 06:43:46;;;;;;;2.35;0.90;;;4.80;99.90;;;;;;5048813;28;20125;-67
2020/12/27 06:46:26;;;;;;;2.60;1.40;;;4.80;99.90;;;;;;5049128;28;20503;-67
2020/12/27 06:49:14;;;;;;;1.25;0.88;;;4.80;99.90;;;;;;5049942;28;20049;-67
2020/12/27 06:51:42;;;;;;;1.92;1.63;;;4.90;99.90;;;;;;5045221;28;20081;-67
2020/12/27 06:54:09;;;;;;;5.20;4.82;;;4.90;99.90;;;;;;5047582;28;20037;-68
2020/12/27 06:56:41;;;;;;;1.30;0.82;;;4.90;99.90;;;;;;5049783;28;20044;-67
2020/12/27 06:59:07;;;;;;;1.20;0.70;;;4.90;99.90;;;;;;5044834;28;20076;-68
2020/12/27 07:01:34;;;;;;;1.55;1.25;;;4.90;99.90;;;;;;5049752;28;20132;-68
2020/12/27 07:04:18;;;;;;;2.75;2.55;;;4.90;99.90;;;;;;5046629;28;20132;-68
2020/12/27 07:06:46;;;;;;;1.80;0.93;;;4.90;99.90;;;;;;5051093;28;20124;-68
2020/12/27 07:09:25;;;;;;;1.77;1.60;;;4.90;99.90;;;;;;5049167;28;20079;-68
2020/12/27 07:12:08;;;;;;;;;;;4.90;99.90;;;;;;5050191;28;20466;-68
2020/12/27 07:14:43;;;;;;;6.82;6.40;;;4.90;99.90;;;;;;5051169;28;20218;-68
2020/12/27 07:17:11;;;;;;;1.88;1.75;;;4.90;99.90;;;;;;5048034;28;20053;-68
2020/12/27 07:19:38;;;;;;;1.63;1.42;;;4.90;99.90;;;;;;5046908;28;20067;-68
2020/12/27 07:22:11;;;;;;;2.70;1.00;;;4.90;99.90;;;;;;5032514;28;20067;-68
2020/12/27 07:24:39;;;;;;;1.40;1.15;;;5.00;99.90;;;;;;5046581;28;20049;-68
2020/12/27 07:27:08;;;;;;;2.83;2.63;;;4.90;99.90;;;;;;5046210;28;20080;-68
2020/12/27 07:29:35;;;;;;;1.38;1.20;;;4.90;99.90;;;;;;5050214;28;20079;-68
2020/12/27 07:32:02;;;;;;;2.33;0.75;;;5.00;99.90;;;;;;5049567;28;20049;-68
2020/12/27 07:34:30;;;;;;;1.30;1.10;;;4.90;99.90;;;;;;5048445;28;20052;-68
2020/12/27 07:37:03;;;;;;;2.22;1.92;;;5.00;99.90;;;;;;5049444;28;20055;-67
2020/12/27 07:39:52;;;;;;;3.58;3.38;;;5.00;99.90;;;;;;5043794;28;20045;-68
2020/12/27 07:42:22;;;;;;;;;;;5.00;99.90;;;;;;5049258;28;20053;-68
2020/12/27 07:44:49;;;;;;;1.38;1.10;;;5.00;99.90;;;;;;5051062;28;20011;-68
2020/12/27 07:47:15;;;;;;;0.90;0.70;;;5.00;99.90;;;;;;5047895;28;20053;-68
2020/12/27 07:49:42;;;;;;;1.00;0.70;;;5.00;99.90;;;;;;5049442;28;20049;-68
2020/12/27 07:52:09;;;;;;;1.40;1.00;;;5.00;99.90;;;;;;5047393;28;20045;-67
2020/12/27 07:54:41;;;;;;;1.00;0.70;;;5.00;99.90;;;;;;5047819;28;20049;-68
2020/12/27 07:57:10;;;;;;;2.80;1.55;;;5.00;99.90;;;;;;5048942;28;20072;-68
2020/12/27 07:59:37;;;;;;;1.25;1.13;;;4.90;99.90;;;;;;5046873;28;20045;-68
2020/12/27 08:02:07;;;;;;;1.27;0.95;;;4.90;99.90;;;;;;5049639;28;20045;-68
2020/12/27 08:04:36;;;;;;;1.30;1.00;;;5.00;99.90;;;;;;5041617;28;20151;-68
2020/12/27 08:07:02;;;;;;;1.83;1.00;;;5.00;99.90;;;;;;5048477;28;20056;-68
2020/12/27 08:09:36;;;;;;;1.73;0.82;;;5.00;99.90;;;;;;5039540;28;20041;-68
2020/12/27 08:12:03;;;;;;;1.23;1.10;;;4.90;99.90;;;;;;5046239;28;20059;-68
2020/12/27 08:14:30;;;;;;;1.20;0.90;;;4.90;99.90;;;;;;5045415;28;20159;-68
2020/12/27 08:16:57;;;;;;;1.65;1.23;;;4.90;99.90;;;;;;5048365;28;20047;-68
2020/12/27 08:19:23;;;;;;;1.83;1.73;;;4.90;99.90;;;;;;5043812;28;20393;-69
2020/12/27 08:21:50;;;;;;;1.25;0.80;;;4.90;99.90;;;;;;5045252;28;20489;-68
2020/12/27 08:24:20;;;;;;;1.20;1.00;;;4.90;99.90;;;;;;5044572;28;20045;-68
2020/12/27 08:26:47;;;;;;;2.65;1.48;;;4.90;99.90;;;;;;5049344;28;20238;-68
2020/12/27 08:29:23;;;;;;;1.23;0.98;;;4.90;99.90;;;;;;5044933;28;20037;-68
2020/12/27 08:31:54;;;;;;;1.00;0.70;;;4.90;99.90;;;;;;5051367;28;20056;-68
2020/12/27 08:34:23;;;;;;;1.48;1.38;;;4.90;99.90;;;;;;5043298;28;20051;-68
2020/12/27 08:36:54;;;;;;;1.25;0.60;;;4.80;99.90;;;;;;5050461;28;20053;-68
2020/12/27 08:39:32;;;;;;;1.17;0.80;;;4.80;99.90;;;;;;5045402;28;20049;-68
2020/12/27 08:42:12;;;;;;;2.10;0.73;;;4.80;99.90;;;;;;5048354;28;20045;-68
2020/12/27 08:44:52;;;;;;;1.30;0.70;;;4.80;99.90;;;;;;5057806;28;20048;-68
2020/12/27 08:47:34;;;;;;;2.15;1.38;;;4.80;99.90;;;;;;5050118;28;20045;-69
2020/12/27 08:50:24;;;;;;;2.65;2.45;;;4.80;99.90;;;;;;5053247;28;20527;-68
2020/12/27 08:52:55;;;;;;;3.55;3.35;;;4.80;99.90;;;;;;5043641;28;20061;-68
2020/12/27 08:55:27;;;;;;;1.52;1.42;;;4.70;99.90;;;;;;5053574;28;20098;-68
2020/12/27 08:58:00;;;;;;;1.60;1.50;;;4.70;99.90;;;;;;5049774;28;20041;-69
2020/12/27 09:00:34;;;;;;;1.00;0.80;;;4.70;99.90;;;;;;5053059;28;20063;-69
2020/12/27 09:03:02;;;;;;;1.65;1.08;;;4.70;99.90;;;;;;5049618;28;20049;-68
2020/12/27 09:05:29;;;;;;;1.00;0.68;;;4.70;99.90;;;;;;5053701;28;20056;-68
2020/12/27 09:07:57;;;;;;;1.63;1.35;;;4.70;99.90;;;;;;5050978;28;20054;-69
2020/12/27 09:10:25;;;;;;;1.20;1.00;;;4.70;99.90;;;;;;5052707;28;20143;-68
2020/12/27 09:13:00;;;;;;;1.20;0.80;;;4.70;99.90;;;;;;5050764;28;20084;-68
2020/12/27 09:15:31;;;;;;;1.60;1.20;;;4.70;99.90;;;;;;5053255;28;20049;-69
2020/12/27 09:18:02;;;;;;;1.20;0.70;;;4.70;99.90;;;;;;5050184;28;20356;-68
2020/12/27 09:20:30;;;;;;;1.05;0.80;;;4.70;99.90;;;;;;5053401;28;20045;-68
2020/12/27 09:22:56;;;;;;;2.35;2.08;;;4.70;99.90;;;;;;5050756;28;20183;-68
2020/12/27 09:25:24;;;;;;;1.58;0.80;;;4.70;99.90;;;;;;5053176;28;20071;-69
2020/12/27 09:27:52;;;;;;;2.28;2.03;;;4.70;99.90;;;;;;5048006;28;20063;-68
2020/12/27 09:30:24;;;;;;;1.90;1.77;;;4.70;99.90;;;;;;5053880;28;20041;-68
2020/12/27 09:32:59;;;;;;;1.67;1.48;;;4.70;99.90;;;;;;5050645;28;20145;-68
2020/12/27 09:35:26;;;;;;;1.00;0.63;;;4.70;99.90;;;;;;5052517;28;20052;-68
2020/12/27 09:37:52;;;;;;;1.20;0.90;;;4.70;99.90;;;;;;5050097;28;20041;-68
2020/12/27 09:40:33;;;;;;;1.40;0.75;;;4.70;99.90;;;;;;5046925;28;20377;-68
2020/12/27 09:43:04;;;;;;;1.20;0.90;;;4.70;99.90;;;;;;5049567;28;20048;-69
2020/12/27 09:45:32;;;;;;;2.00;1.55;;;4.70;99.90;;;;;;5051344;28;20456;-69
2020/12/27 09:48:03;;;;;;;2.55;0.77;;;4.70;99.90;;;;;;5050947;28;20053;-68
2020/12/27 09:50:35;;;;;;;0.98;0.60;;;4.70;99.90;;;;;;5047768;28;20053;-68
2020/12/27 09:53:03;;;;;;;1.20;0.70;;;4.70;99.90;;;;;;5042679;28;20053;-68
2020/12/27 09:55:30;;;;;;;1.85;0.80;;;4.70;99.90;;;;;;5052950;28;20129;-68
2020/12/27 09:57:56;;;;;;;1.10;0.70;;;4.70;99.90;;;;;;5051060;28;20178;-68
2020/12/27 10:00:23;;;;;;;1.20;0.80;;;4.70;99.90;;;;;;5052510;28;20045;-68
2020/12/27 10:02:50;;;;;;;1.35;0.70;;;4.70;99.90;;;;;;5049435;28;20056;-68
2020/12/27 10:05:16;;;;;;;1.35;1.10;;;4.70;99.90;;;;;;5053107;28;20045;-69
2020/12/27 10:07:43;;;;;;;1.60;1.27;;;4.80;99.90;;;;;;5049789;28;20139;-69
2020/12/27 10:10:12;;;;;;;1.40;1.00;;;4.80;99.90;;;;;;5049638;28;20503;-69
2020/12/27 10:12:40;;;;;;;1.20;0.90;;;4.80;99.90;;;;;;5049851;28;20124;-68
2020/12/27 10:15:08;;;;;;;1.30;0.75;;;4.80;99.90;;;;;;5052908;28;20055;-68
2020/12/27 10:17:34;;;;;;;2.03;0.90;;;4.80;99.90;;;;;;5050007;28;20047;-68
2020/12/27 10:20:02;;;;;;;2.22;2.03;;;4.80;99.90;;;;;;5052457;28;20048;-68
2020/12/27 10:22:29;;;;;;;2.28;0.70;;;4.80;99.90;;;;;;5048289;28;20050;-68
2020/12/27 10:24:55;;;;;;;1.25;0.90;;;4.80;99.90;;;;;;5031782;28;20059;-68
2020/12/27 10:27:22;;;;;;;1.30;1.15;;;4.90;99.90;;;;;;5045167;28;20208;-69
2020/12/27 10:29:48;;;;;;;1.35;1.08;;;4.90;99.90;;;;;;5044157;28;20419;-69
2020/12/27 10:32:15;;;;;;;2.58;2.38;;;4.90;99.90;;;;;;5050581;28;20059;-69
2020/12/27 10:34:41;;;;;;;1.17;0.70;;;4.90;99.90;;;;;;5052465;28;20136;-68
2020/12/27 10:37:07;;;;;;;2.90;2.70;;;4.90;99.90;;;;;;5050166;28;20128;-68
2020/12/27 10:39:33;;;;;;;1.10;0.73;;;4.90;99.90;;;;;;5080741;28;20068;-68
2020/12/27 10:42:00;;;;;;;1.77;1.40;;;4.90;99.90;;;;;;5051512;28;20099;-68
2020/12/27 10:44:27;;;;;;;1.20;0.95;;;4.90;99.90;;;;;;5049649;28;20499;-68
2020/12/27 10:46:53;;;;;;;1.45;1.15;;;4.90;99.90;;;;;;5052380;28;20040;-68
2020/12/27 10:49:21;;;;;;;1.25;0.75;;;4.90;99.90;;;;;;5043036;28;20400;-68
2020/12/27 10:51:48;;;;;;;1.75;0.80;;;5.00;99.90;;;;;;5052111;28;20052;-68
2020/12/27 10:54:15;;;;;;;1.10;0.70;;;5.00;99.90;;;;;;5050338;28;20080;-68
2020/12/27 10:56:43;;;;;;;1.83;1.73;;;5.00;99.90;;;;;;5052372;28;20472;-68
2020/12/27 10:59:12;;;;;;;1.27;0.90;;;5.00;99.90;;;;;;5046527;28;20560;-68
2020/12/27 11:01:46;;;;;;;1.50;0.70;;;5.00;99.90;;;;;;5040142;28;20053;-67
2020/12/27 11:04:12;;;;;;;1.20;1.02;;;5.00;99.90;;;;;;5054510;28;20045;-68
2020/12/27 11:06:39;;;;;;;1.58;1.40;;;5.00;99.90;;;;;;5053166;28;20086;-68
2020/12/27 11:09:06;;;;;;;1.40;1.30;;;5.10;99.90;;;;;;5041817;28;20055;-68
2020/12/27 11:11:34;;;;;;;2.00;0.90;;;5.10;99.90;;;;;;5050663;28;20048;-68
2020/12/27 11:14:02;;;;;;;1.13;0.82;;;5.10;99.90;;;;;;5047679;28;20076;-69
2020/12/27 11:16:28;;;;;;;1.33;0.70;;;5.10;99.90;;;;;;5051284;28;20045;-68
2020/12/27 11:18:55;;;;;;;3.55;3.33;;;5.10;99.90;;;;;;5047092;28;20468;-68
2020/12/27 11:21:21;;;;;;;1.30;0.90;;;5.10;99.90;;;;;;5050431;28;20511;-68
2020/12/27 11:23:47;;;;;;;1.33;0.70;;;5.20;99.90;;;;;;5044175;28;20463;-68
2020/12/27 11:26:18;;;;;;;1.23;0.82;;;5.20;99.90;;;;;;5053162;28;20052;-68
2020/12/27 11:28:45;;;;;;;2.80;2.60;;;5.20;99.90;;;;;;5042824;28;20045;-69
2020/12/27 11:31:17;;;;;;;1.30;0.80;;;5.20;99.90;;;;;;5048952;28;20389;-68
2020/12/27 11:33:48;;;;;;;3.08;1.33;;;5.20;99.90;;;;;;5045654;28;20045;-68
2020/12/27 11:36:15;;;;;;;0.98;0.70;;;5.30;99.90;;;;;;5045644;28;20049;-68
2020/12/27 11:38:41;;;;;;;1.27;1.15;;;5.30;99.90;;;;;;5044810;28;20041;-68
2020/12/27 11:41:12;;;;;;;1.50;1.05;;;5.30;99.90;;;;;;5051819;28;20112;-68
2020/12/27 11:43:38;;;;;;;1.92;0.93;;;5.30;99.90;;;;;;5045027;28;20045;-68
2020/12/27 11:46:04;;;;;;;1.90;1.20;;;5.40;99.90;;;;;;5050920;28;20147;-68
2020/12/27 11:48:30;;;;;;;2.38;2.17;;;5.40;99.90;;;;;;5045914;28;20045;-68
2020/12/27 11:50:57;;;;;;;1.80;1.25;;;5.40;99.90;;;;;;5051545;28;20436;-68
2020/12/27 11:53:23;;;;;;;1.38;0.75;;;5.30;99.90;;;;;;5047313;28;20076;-68
2020/12/27 11:55:49;;;;;;;2.70;2.50;;;5.30;99.90;;;;;;5051548;28;20044;-68
2020/12/27 11:58:15;;;;;;;1.10;0.70;;;5.30;99.90;;;;;;5045190;28;20384;-68
2020/12/27 12:00:42;;;;;;;1.25;1.10;;;5.30;99.90;;;;;;5051491;28;20400;-68
2020/12/27 12:03:09;;;;;;;1.10;0.70;;;5.30;99.90;;;;;;5047374;28;20044;-68
2020/12/27 12:05:35;;;;;;;1.65;1.55;;;5.30;99.90;;;;;;5048782;28;20128;-68
2020/12/27 12:08:01;;;;;;;0.90;0.57;;;5.30;99.90;;;;;;5048849;28;20052;-68
2020/12/27 12:10:27;;;;;;;1.50;0.90;;;5.30;99.90;;;;;;5050166;28;20136;-68
2020/12/27 12:12:53;;;;;;;2.05;1.95;;;5.30;99.90;;;;;;5046703;28;20441;-68
2020/12/27 12:15:20;;;;;;;1.17;0.85;;;5.40;99.90;;;;;;5051739;28;20132;-68
2020/12/27 12:17:46;;;;;;;1.30;0.68;;;5.40;99.90;;;;;;5047369;28;20411;-68
2020/12/27 12:22:57;;;;;;;3.05;0.90;;;5.40;99.90;;;;;;5044852;28;20064;-68
2020/12/27 12:25:23;;;;;;;1.42;0.95;;;5.40;99.90;;;;;;5054464;28;20073;-68
2020/12/27 12:27:50;;;;;;;1.27;0.70;;;5.40;99.90;;;;;;5053180;28;20399;-68
2020/12/27 12:30:16;;;;;;;1.45;1.35;;;5.40;99.90;;;;;;5053569;28;20041;-69
2020/12/27 12:32:42;;;;;;;1.23;0.65;;;5.40;99.90;;;;;;5049130;28;20136;-69
2020/12/27 12:35:09;;;;;;;1.27;0.70;;;5.40;99.90;;;;;;5054290;28;20052;-68
2020/12/27 12:37:36;;;;;;;0.98;0.70;;;5.40;99.90;;;;;;5056427;28;20127;-68
2020/12/27 12:40:05;;;;;;;1.80;0.75;;;5.40;99.90;;;;;;5053295;28;20081;-68
2020/12/27 12:42:37;;;;;;;;;;;5.40;99.90;;;;;;5050995;28;20127;-68
2020/12/27 12:45:06;;;;;;;1.20;1.00;;;5.40;99.90;;;;;;5051442;28;19931;-68
2020/12/27 12:47:32;;;;;;;1.20;0.60;;;5.40;99.90;;;;;;5050042;28;20107;-68
2020/12/27 12:49:58;;;;;;;1.67;0.60;;;5.40;99.90;;;;;;5055650;28;20170;-69
2020/12/27 12:52:25;;;;;;;1.10;0.60;;;5.50;99.90;;;;;;5049020;28;20053;-68
2020/12/27 12:54:51;;;;;;;1.10;0.70;;;5.50;99.90;;;;;;5059097;28;20514;-68
2020/12/27 12:57:17;;;;;;;1.40;1.27;;;5.50;99.90;;;;;;5050961;28;21722;-68
2020/12/27 12:59:44;;;;;;;1.27;0.63;;;5.50;99.90;;;;;;5051892;28;20048;-68
2020/12/27 13:02:10;;;;;;;1.15;0.65;;;5.50;99.90;;;;;;5052287;28;20049;-69
2020/12/27 13:04:36;;;;;;;1.15;0.60;;;5.50;99.90;;;;;;5053825;28;20048;-69
2020/12/27 13:07:02;;;;;;;1.10;0.60;;;5.50;99.90;;;;;;5052905;28;20045;-68
2020/12/27 13:09:30;;;;;;;0.90;0.70;;;5.50;99.90;;;;;;5049374;28;20391;-68
2020/12/27 13:11:57;;;;;;;1.10;0.60;;;5.50;99.90;;;;;;5053127;28;20040;-68